Time;durP1;ratioP1;P1;durP2;ratioP2;P2;SDS_P1;SDS_P2;PMS_P1;PMS_P2;Temp;Humidity;BMP_temperature;BMP_pressure;BME280_temperature;BME280_humidity;BME280_pressure;Samples;Min_cycle;Max_cycle;Signal;HPM_P1;HPM_P2
2022/08/20 00:02:04;;;;;;;17.65;11.90;;;23.60;99.90;;;;;;6338221;28;20294;-66
2022/08/20 00:05:10;;;;;;;15.60;11.95;;;23.50;99.90;;;;;;6339071;28;20293;-66
2022/08/20 00:08:18;;;;;;;14.23;11.43;;;23.50;99.90;;;;;;6338486;28;20314;-66
2022/08/20 00:11:26;;;;;;;23.45;11.63;;;23.40;99.90;;;;;;6353740;28;20306;-67
2022/08/20 00:14:33;;;;;;;16.63;10.80;;;23.40;99.90;;;;;;6337795;28;20270;-66
2022/08/20 00:17:39;;;;;;;20.23;11.13;;;23.40;99.90;;;;;;6338057;28;20305;-66
2022/08/20 00:20:47;;;;;;;17.55;10.93;;;23.40;99.90;;;;;;6338141;28;20270;-66
2022/08/20 00:23:56;;;;;;;18.23;11.38;;;23.40;99.90;;;;;;6337713;28;20293;-65
2022/08/20 00:27:01;;;;;;;14.55;10.68;;;23.40;99.90;;;;;;6337525;28;20426;-66
2022/08/20 00:30:10;;;;;;;16.58;10.52;;;23.40;99.90;;;;;;6336550;28;20269;-66
2022/08/20 00:33:22;;;;;;;16.42;10.50;;;23.40;99.90;;;;;;6337387;28;20297;-66
2022/08/20 00:36:27;;;;;;;20.50;10.77;;;23.40;99.90;;;;;;6337677;28;20294;-66
2022/08/20 00:39:38;;;;;;;16.02;10.77;;;23.40;99.90;;;;;;6337930;28;20273;-66
2022/08/20 00:42:47;;;;;;;18.95;10.63;;;23.40;99.90;;;;;;6352803;28;20302;-67
2022/08/20 00:45:56;;;;;;;18.42;10.27;;;23.30;99.90;;;;;;6337840;28;20269;-66
2022/08/20 00:49:02;;;;;;;18.30;10.82;;;23.40;99.90;;;;;;6336666;28;20277;-66
2022/08/20 00:52:12;;;;;;;18.08;9.95;;;23.40;99.90;;;;;;6337236;28;20597;-66
2022/08/20 00:55:22;;;;;;;16.98;10.20;;;23.30;99.90;;;;;;6337365;28;20273;-66
2022/08/20 00:58:34;;;;;;;14.63;10.20;;;23.20;99.90;;;;;;6337000;28;20293;-67
2022/08/20 01:01:39;;;;;;;13.25;10.27;;;23.20;99.90;;;;;;6337005;28;20297;-67
2022/08/20 01:05:00;;;;;;;15.15;10.15;;;23.20;99.90;;;;;;6336977;28;20304;-66
2022/08/20 01:08:08;;;;;;;13.80;9.52;;;23.20;99.90;;;;;;6336702;28;20297;-66
2022/08/20 01:11:15;;;;;;;13.00;9.55;;;23.10;99.90;;;;;;6336595;28;20545;-66
2022/08/20 01:14:30;;;;;;;10.57;9.55;;;23.20;99.90;;;;;;6337005;28;20469;-67
2022/08/20 01:17:37;;;;;;;14.65;9.55;;;23.10;99.90;;;;;;6336883;28;20298;-66
2022/08/20 01:20:48;;;;;;;14.02;9.45;;;23.10;99.90;;;;;;6337314;28;20269;-67
2022/08/20 01:23:59;;;;;;;13.93;9.13;;;23.10;99.90;;;;;;6335874;28;20293;-67
2022/08/20 01:27:06;;;;;;;14.40;9.70;;;23.10;99.90;;;;;;6336347;28;20294;-67
2022/08/20 01:30:13;;;;;;;14.60;9.60;;;23.00;99.90;;;;;;6336873;28;20553;-67
2022/08/20 01:33:19;;;;;;;14.75;9.07;;;23.00;99.90;;;;;;6336111;28;20298;-66
2022/08/20 01:36:30;;;;;;;13.18;8.90;;;23.00;99.90;;;;;;6336165;28;20294;-66
2022/08/20 01:39:36;;;;;;;19.75;9.77;;;23.00;99.90;;;;;;6336648;28;20269;-66
2022/08/20 01:42:45;;;;;;;14.68;9.50;;;22.90;99.90;;;;;;6336053;28;20297;-66
2022/08/20 01:46:03;;;;;;;12.93;9.27;;;22.80;99.90;;;;;;6335797;28;20289;-67
2022/08/20 01:49:18;;;;;;;12.48;8.95;;;22.90;99.90;;;;;;6336093;28;20274;-66
2022/08/20 01:52:43;;;;;;;16.90;8.82;;;22.80;99.90;;;;;;6335709;28;20313;-66
2022/08/20 01:55:49;;;;;;;17.80;9.35;;;22.80;99.90;;;;;;6335806;28;20265;-66
2022/08/20 01:58:58;;;;;;;13.60;8.73;;;22.80;99.90;;;;;;6335804;28;20294;-67
2022/08/20 02:02:05;;;;;;;19.20;8.25;;;22.90;99.90;;;;;;6335298;28;20298;-67
2022/08/20 02:05:11;;;;;;;12.32;8.68;;;22.70;99.90;;;;;;6335366;28;20294;-66
2022/08/20 02:08:21;;;;;;;13.88;7.57;;;22.80;99.90;;;;;;6335569;28;20289;-66
2022/08/20 02:11:27;;;;;;;17.17;8.18;;;22.80;99.90;;;;;;6329715;28;20285;-66
2022/08/20 02:14:35;;;;;;;16.80;7.80;;;22.80;99.90;;;;;;6335057;28;20293;-66
2022/08/20 02:17:42;;;;;;;16.50;7.53;;;22.80;99.90;;;;;;6334933;28;20321;-66
2022/08/20 02:20:48;;;;;;;12.88;7.35;;;22.80;99.90;;;;;;6335643;28;20270;-66
2022/08/20 02:23:54;;;;;;;15.25;6.88;;;22.90;99.90;;;;;;6335092;28;20488;-67
2022/08/20 02:26:59;;;;;;;21.73;7.13;;;22.90;99.90;;;;;;6334840;28;20473;-66
2022/08/20 02:30:11;;;;;;;20.75;7.00;;;22.90;99.90;;;;;;6335437;28;20265;-66
2022/08/20 02:33:32;;;;;;;12.18;6.97;;;23.00;99.90;;;;;;6334912;28;20302;-66
2022/08/20 02:36:38;;;;;;;20.20;7.30;;;23.00;99.90;;;;;;6337366;28;20297;-67
2022/08/20 02:39:43;;;;;;;16.88;7.07;;;23.00;99.90;;;;;;6340655;28;20289;-67
2022/08/20 02:42:48;;;;;;;14.70;6.97;;;23.00;99.90;;;;;;6339874;28;20289;-66
2022/08/20 02:45:55;;;;;;;17.92;7.22;;;23.10;99.90;;;;;;6340526;28;20273;-67
2022/08/20 02:49:00;;;;;;;12.57;6.75;;;23.10;99.90;;;;;;6339575;28;20277;-67
2022/08/20 02:52:06;;;;;;;14.38;7.05;;;23.10;99.90;;;;;;6339615;28;20621;-66
2022/08/20 02:55:12;;;;;;;12.00;6.93;;;23.10;99.90;;;;;;6340211;28;20655;-66
2022/08/20 02:58:31;;;;;;;14.98;7.30;;;23.10;99.90;;;;;;6339369;28;20294;-67
2022/08/20 03:01:38;;;;;;;13.23;6.80;;;23.10;99.90;;;;;;6334504;28;20270;-67
2022/08/20 03:04:43;;;;;;;24.50;7.38;;;23.10;99.90;;;;;;6305625;28;20566;-67
2022/08/20 03:07:53;;;;;;;13.20;6.78;;;23.10;99.90;;;;;;6314053;28;20294;-67
2022/08/20 03:10:58;;;;;;;13.02;7.13;;;23.20;99.90;;;;;;6314630;28;20445;-67
2022/08/20 03:14:03;;;;;;;12.93;7.45;;;23.10;99.90;;;;;;6314203;28;20303;-67
2022/08/20 03:17:10;;;;;;;15.85;7.38;;;23.10;99.90;;;;;;6313710;28;20270;-67
2022/08/20 03:20:16;;;;;;;17.02;7.43;;;23.20;99.90;;;;;;6314516;28;20558;-67
2022/08/20 03:23:26;;;;;;;18.63;7.38;;;23.20;99.90;;;;;;6313580;28;20298;-67
2022/08/20 03:26:31;;;;;;;10.43;6.65;;;23.20;99.90;;;;;;6314080;28;20582;-66
2022/08/20 03:29:37;;;;;;;17.73;7.60;;;23.20;99.90;;;;;;6313809;28;20488;-67
2022/08/20 03:32:44;;;;;;;16.27;7.88;;;23.20;99.90;;;;;;6313788;28;20290;-67
2022/08/20 03:35:49;;;;;;;22.52;7.63;;;23.20;99.90;;;;;;6313861;28;20278;-67
2022/08/20 03:38:54;;;;;;;16.48;7.25;;;23.20;99.90;;;;;;6313510;28;20586;-67
2022/08/20 03:42:00;;;;;;;13.63;7.20;;;23.20;99.90;;;;;;6313559;28;20290;-67
2022/08/20 03:45:06;;;;;;;20.27;7.45;;;23.20;99.90;;;;;;6313266;28;20585;-67
2022/08/20 03:48:18;;;;;;;14.60;7.80;;;23.20;99.90;;;;;;6312352;28;20470;-67
2022/08/20 03:51:23;;;;;;;12.43;7.72;;;23.20;99.90;;;;;;6313948;28;20270;-68
2022/08/20 03:54:29;;;;;;;9.80;7.60;;;23.20;99.90;;;;;;6313059;28;20294;-67
2022/08/20 03:57:36;;;;;;;17.77;8.55;;;23.20;99.90;;;;;;6312828;28;20601;-67
2022/08/20 04:00:45;;;;;;;13.43;7.68;;;23.10;99.90;;;;;;6313637;28;20267;-67
2022/08/20 04:03:51;;;;;;;12.00;8.20;;;23.10;99.90;;;;;;6317915;28;20306;-66
2022/08/20 04:06:59;;;;;;;16.83;8.05;;;23.10;99.90;;;;;;6338273;28;20458;-67
2022/08/20 04:10:09;;;;;;;14.88;8.32;;;23.00;99.90;;;;;;6333724;28;20295;-67
2022/08/20 04:13:18;;;;;;;20.40;8.50;;;22.90;99.90;;;;;;6338108;28;20298;-67
2022/08/20 04:16:27;;;;;;;18.80;8.27;;;22.90;99.90;;;;;;6338164;28;20289;-66
2022/08/20 04:19:36;;;;;;;14.23;8.80;;;22.90;99.90;;;;;;6338042;28;20600;-66
2022/08/20 04:22:41;;;;;;;16.13;8.25;;;22.90;99.90;;;;;;6337291;28;20293;-66
2022/08/20 04:26:02;;;;;;;16.83;8.88;;;23.00;99.90;;;;;;6338012;28;20278;-66
2022/08/20 04:29:07;;;;;;;12.43;8.48;;;22.90;99.90;;;;;;6337436;28;20293;-66
2022/08/20 04:32:12;;;;;;;21.67;9.48;;;22.90;99.90;;;;;;6337010;28;20269;-67
2022/08/20 04:35:24;;;;;;;15.75;9.38;;;22.80;99.90;;;;;;6337591;28;20468;-67
2022/08/20 04:38:30;;;;;;;22.30;9.32;;;22.80;99.90;;;;;;6336907;28;20298;-66
2022/08/20 04:41:54;;;;;;;32.03;9.40;;;22.80;99.90;;;;;;6337607;28;20273;-66
2022/08/20 04:45:00;;;;;;;14.48;9.20;;;22.70;99.90;;;;;;6336712;28;20302;-66
2022/08/20 04:48:06;;;;;;;14.63;9.48;;;22.60;99.90;;;;;;6336545;28;20451;-66
2022/08/20 04:51:20;;;;;;;12.27;8.80;;;22.60;99.90;;;;;;6335881;28;20577;-67
2022/08/20 04:54:27;;;;;;;15.48;8.18;;;22.50;99.90;;;;;;6336817;28;20293;-67
2022/08/20 04:57:35;;;;;;;15.07;8.60;;;22.40;99.90;;;;;;6336222;28;20298;-67
2022/08/20 05:00:40;;;;;;;13.57;8.70;;;22.50;99.90;;;;;;6336881;28;20334;-67
2022/08/20 05:03:46;;;;;;;12.82;8.07;;;22.60;99.90;;;;;;6325696;28;20307;-67
2022/08/20 05:06:53;;;;;;;13.70;8.30;;;22.50;99.90;;;;;;6312052;28;20274;-67
2022/08/20 05:09:59;;;;;;;13.95;9.07;;;22.60;99.90;;;;;;6307653;28;20298;-66
2022/08/20 05:13:05;;;;;;;12.23;8.55;;;22.60;99.90;;;;;;6310249;28;20302;-66
2022/08/20 05:16:11;;;;;;;17.67;9.23;;;22.50;99.90;;;;;;6311636;28;20290;-67
2022/08/20 05:19:16;;;;;;;14.73;9.10;;;22.40;99.90;;;;;;6311014;28;20321;-67
2022/08/20 05:22:23;;;;;;;20.13;9.35;;;22.50;99.90;;;;;;6310756;28;20445;-67
2022/08/20 05:25:35;;;;;;;12.15;8.98;;;22.40;99.90;;;;;;6311528;28;20278;-66
2022/08/20 05:28:40;;;;;;;16.77;9.77;;;22.40;99.90;;;;;;6310716;28;20485;-67
2022/08/20 05:32:03;;;;;;;15.63;8.75;;;22.40;99.90;;;;;;6310993;28;20282;-68
2022/08/20 05:35:10;;;;;;;16.58;9.85;;;22.40;99.90;;;;;;6309843;28;20295;-66
2022/08/20 05:38:19;;;;;;;17.10;9.15;;;22.40;99.90;;;;;;6310583;28;20297;-66
2022/08/20 05:41:25;;;;;;;12.57;8.95;;;22.30;99.90;;;;;;6311122;28;20434;-66
2022/08/20 05:44:34;;;;;;;14.93;8.80;;;22.30;99.90;;;;;;6310593;28;20294;-66
2022/08/20 05:47:40;;;;;;;18.98;8.68;;;22.40;99.90;;;;;;6310632;28;20294;-67
2022/08/20 05:50:49;;;;;;;16.38;8.90;;;22.40;99.90;;;;;;6310644;28;20274;-66
2022/08/20 05:53:57;;;;;;;12.75;8.77;;;22.40;99.90;;;;;;6310472;28;20294;-66
2022/08/20 05:57:04;;;;;;;12.80;8.95;;;22.30;99.90;;;;;;6310319;28;20290;-66
2022/08/20 06:00:13;;;;;;;15.48;8.52;;;22.30;99.90;;;;;;6309842;28;20274;-67
2022/08/20 06:06:42;;;;;;;10.40;8.30;;;22.20;99.90;;;;;;6335798;28;20573;-66
2022/08/20 06:09:51;;;;;;;9.07;8.05;;;22.20;99.90;;;;;;6332553;28;20302;-66
2022/08/20 06:12:57;;;;;;;12.07;8.73;;;22.20;99.90;;;;;;6332864;28;20297;-67
2022/08/20 06:16:02;;;;;;;14.35;9.20;;;22.20;99.90;;;;;;6335761;28;20293;-67
2022/08/20 06:19:13;;;;;;;15.57;8.80;;;22.20;99.90;;;;;;6334975;28;20348;-67
2022/08/20 06:22:29;;;;;;;9.90;8.70;;;22.10;99.90;;;;;;6334639;28;20573;-67
2022/08/20 06:25:36;;;;;;;19.85;9.27;;;22.10;99.90;;;;;;6335265;28;20265;-66
2022/08/20 06:28:42;;;;;;;14.82;8.52;;;22.10;99.90;;;;;;6334734;28;20613;-66
2022/08/20 06:31:47;;;;;;;10.68;8.40;;;22.00;99.90;;;;;;6335006;28;20274;-65
2022/08/20 06:34:52;;;;;;;14.60;9.13;;;22.00;99.90;;;;;;6334793;28;20597;-65
2022/08/20 06:37:59;;;;;;;12.02;8.85;;;22.10;99.90;;;;;;6334792;28;20298;-67
2022/08/20 06:41:08;;;;;;;16.40;8.63;;;22.10;99.90;;;;;;6335424;28;20274;-66
2022/08/20 06:44:14;;;;;;;14.35;9.13;;;22.10;99.90;;;;;;6334556;28;20306;-66
2022/08/20 06:47:20;;;;;;;18.83;9.20;;;22.10;99.90;;;;;;6334311;28;20274;-68
2022/08/20 06:50:30;;;;;;;19.92;9.85;;;22.10;99.90;;;;;;6334846;28;20395;-67
2022/08/20 06:53:35;;;;;;;13.40;9.45;;;22.20;99.90;;;;;;6334728;28;20688;-66
2022/08/20 06:56:42;;;;;;;16.73;9.93;;;22.10;99.90;;;;;;6335014;28;20310;-66
2022/08/20 06:59:48;;;;;;;14.60;8.93;;;22.10;99.90;;;;;;6334121;28;20294;-66
2022/08/20 07:02:59;;;;;;;19.58;9.65;;;22.10;99.90;;;;;;6329872;28;20307;-68
2022/08/20 07:06:05;;;;;;;17.17;8.65;;;22.20;99.90;;;;;;6310018;28;20274;-66
2022/08/20 07:09:10;;;;;;;18.50;9.23;;;22.30;99.90;;;;;;6309644;28;20298;-67
2022/08/20 07:12:17;;;;;;;20.27;9.00;;;22.20;99.90;;;;;;6304058;28;20262;-67
2022/08/20 07:15:24;;;;;;;15.15;9.68;;;22.30;99.90;;;;;;6309999;28;20270;-66
2022/08/20 07:18:30;;;;;;;13.55;8.38;;;22.20;99.90;;;;;;6308978;28;20294;-67
2022/08/20 07:21:35;;;;;;;16.88;8.60;;;22.20;99.90;;;;;;6309479;28;20389;-67
2022/08/20 07:24:40;;;;;;;15.95;8.82;;;22.20;99.90;;;;;;6313098;28;20397;-66
2022/08/20 07:27:58;;;;;;;18.10;9.50;;;22.20;99.90;;;;;;6313454;28;20307;-67
2022/08/20 07:34:26;;;;;;;17.90;9.57;;;22.10;99.90;;;;;;6313454;28;20298;-67
2022/08/20 07:37:31;;;;;;;17.10;9.85;;;22.00;99.90;;;;;;6313541;28;20385;-67
2022/08/20 07:40:37;;;;;;;18.60;9.68;;;22.10;99.90;;;;;;6313810;28;20274;-66
2022/08/20 07:43:45;;;;;;;14.40;9.68;;;22.20;99.90;;;;;;6313404;28;20593;-66
2022/08/20 07:46:50;;;;;;;16.33;9.25;;;22.20;99.90;;;;;;6313316;28;20275;-67
2022/08/20 07:49:55;;;;;;;23.90;9.55;;;22.20;99.90;;;;;;6312944;28;20469;-66
2022/08/20 07:53:00;;;;;;;21.23;9.65;;;22.20;99.90;;;;;;6312438;28;20295;-67
2022/08/20 07:56:08;;;;;;;14.85;9.13;;;22.20;99.90;;;;;;6313425;28;20274;-67
2022/08/20 07:59:17;;;;;;;16.25;9.45;;;22.20;99.90;;;;;;6312698;28;20362;-66
2022/08/20 08:02:22;;;;;;;17.00;9.27;;;22.20;99.90;;;;;;6312317;28;20270;-67
2022/08/20 08:05:28;;;;;;;15.93;9.10;;;22.20;99.90;;;;;;6331972;28;20289;-67
2022/08/20 08:08:34;;;;;;;18.08;9.70;;;22.20;99.90;;;;;;6337509;28;20302;-66
2022/08/20 08:11:43;;;;;;;18.13;9.45;;;22.20;99.90;;;;;;6320847;28;20267;-67
2022/08/20 08:14:53;;;;;;;20.67;9.10;;;22.30;99.90;;;;;;6312286;28;20299;-67
2022/08/20 08:18:04;;;;;;;17.27;9.02;;;22.30;99.90;;;;;;6312108;28;20301;-67
2022/08/20 08:21:11;;;;;;;17.58;9.93;;;22.40;99.90;;;;;;6312591;28;20266;-66
2022/08/20 08:24:18;;;;;;;22.13;9.73;;;22.40;99.90;;;;;;6311771;28;20390;-67
2022/08/20 08:27:31;;;;;;;15.77;9.25;;;22.40;99.90;;;;;;6312037;28;20382;-67
2022/08/20 08:30:39;;;;;;;19.23;9.40;;;22.60;99.90;;;;;;6311690;28;20270;-68
2022/08/20 08:33:45;;;;;;;16.20;9.57;;;22.60;99.90;;;;;;6311479;28;20301;-67
2022/08/20 08:36:50;;;;;;;20.10;9.52;;;22.60;99.90;;;;;;6312216;28;20359;-67
2022/08/20 08:39:55;;;;;;;15.95;9.20;;;22.60;99.90;;;;;;6311646;28;20623;-66
2022/08/20 08:43:03;;;;;;;19.92;10.10;;;22.60;99.90;;;;;;6312009;28;20318;-67
2022/08/20 08:46:12;;;;;;;16.38;9.32;;;22.60;99.90;;;;;;6311807;28;20452;-66
2022/08/20 08:49:23;;;;;;;16.60;10.02;;;22.60;99.90;;;;;;6311799;28;20303;-66
2022/08/20 08:52:41;;;;;;;25.00;10.40;;;22.60;99.90;;;;;;6311561;28;20455;-66
2022/08/20 08:55:47;;;;;;;23.15;10.77;;;22.50;99.90;;;;;;6311888;28;20266;-66
2022/08/20 08:58:54;;;;;;;22.90;10.27;;;22.50;99.90;;;;;;6310959;28;20294;-66
2022/08/20 09:02:01;;;;;;;22.92;10.93;;;22.50;99.90;;;;;;6311236;28;20399;-66
2022/08/20 09:05:14;;;;;;;21.05;10.82;;;22.50;99.90;;;;;;6331396;28;20301;-67
2022/08/20 09:08:24;;;;;;;21.75;11.38;;;22.40;99.90;;;;;;6336270;28;20314;-66
2022/08/20 09:11:31;;;;;;;21.45;10.85;;;22.40;99.90;;;;;;6331755;28;20523;-66
2022/08/20 09:14:40;;;;;;;23.80;11.20;;;22.40;99.90;;;;;;6336267;28;20289;-66
2022/08/20 09:17:46;;;;;;;21.50;11.73;;;22.40;99.90;;;;;;6335787;28;20293;-66
2022/08/20 09:20:51;;;;;;;20.88;11.15;;;22.40;99.90;;;;;;6336554;28;20470;-66
2022/08/20 09:23:56;;;;;;;22.10;11.80;;;22.40;99.90;;;;;;6336053;28;20298;-66
2022/08/20 09:27:02;;;;;;;28.52;11.48;;;22.40;99.90;;;;;;6336671;28;20285;-67
2022/08/20 09:30:09;;;;;;;23.45;12.27;;;22.50;99.90;;;;;;6335576;28;20277;-66
2022/08/20 09:33:16;;;;;;;29.42;12.38;;;22.50;99.90;;;;;;6335582;28;20321;-66
2022/08/20 09:36:21;;;;;;;23.48;11.57;;;22.40;99.90;;;;;;6336364;28;20269;-66
2022/08/20 09:39:37;;;;;;;25.60;12.82;;;22.40;99.90;;;;;;6335511;28;20301;-65
2022/08/20 09:42:42;;;;;;;25.52;11.93;;;22.50;99.90;;;;;;6335123;28;20305;-65
2022/08/20 09:45:47;;;;;;;20.85;11.57;;;22.50;99.90;;;;;;6335399;28;20269;-65
2022/08/20 09:48:53;;;;;;;31.50;12.07;;;22.50;99.90;;;;;;6335107;28;20357;-66
2022/08/20 09:52:00;;;;;;;22.42;12.30;;;22.50;99.90;;;;;;6336010;28;20269;-66
2022/08/20 09:55:19;;;;;;;24.52;11.77;;;22.60;99.90;;;;;;6334817;28;20293;-66
2022/08/20 09:58:33;;;;;;;22.65;12.10;;;22.60;99.90;;;;;;6335083;28;20298;-66
2022/08/20 10:01:38;;;;;;;29.75;12.50;;;22.70;99.90;;;;;;6334955;28;20274;-67
2022/08/20 10:04:44;;;;;;;28.73;13.07;;;22.80;99.90;;;;;;6335568;28;20297;-66
2022/08/20 10:07:53;;;;;;;27.52;12.45;;;22.90;99.90;;;;;;6335032;28;20462;-66
2022/08/20 10:10:58;;;;;;;20.15;12.68;;;22.90;99.90;;;;;;6335100;28;20266;-66
2022/08/20 10:14:04;;;;;;;23.33;12.25;;;22.90;99.90;;;;;;6334788;28;20293;-66
2022/08/20 10:17:10;;;;;;;22.48;12.70;;;22.90;99.90;;;;;;6335086;28;20541;-66
2022/08/20 10:20:17;;;;;;;31.48;13.02;;;22.90;99.90;;;;;;6335291;28;20285;-66
2022/08/20 10:23:23;;;;;;;27.92;13.13;;;22.90;99.90;;;;;;6333550;28;20293;-66
2022/08/20 10:26:28;;;;;;;22.70;12.52;;;22.80;99.90;;;;;;6335454;28;20269;-66
2022/08/20 10:29:33;;;;;;;28.75;12.50;;;22.80;99.90;;;;;;6334578;28;20301;-66
2022/08/20 10:32:38;;;;;;;30.75;13.77;;;22.80;99.90;;;;;;6334614;28;20317;-67
2022/08/20 10:35:45;;;;;;;23.90;13.60;;;22.80;99.90;;;;;;6335258;28;20269;-66
2022/08/20 10:38:51;;;;;;;21.88;13.55;;;22.80;99.90;;;;;;6334767;28;20298;-66
2022/08/20 10:41:56;;;;;;;31.00;14.65;;;22.70;99.90;;;;;;6335437;28;20270;-66
2022/08/20 10:45:01;;;;;;;33.03;15.05;;;22.80;99.90;;;;;;6334079;28;20293;-66
2022/08/20 10:48:06;;;;;;;26.17;14.52;;;22.80;99.90;;;;;;6334852;28;20293;-66
2022/08/20 10:51:14;;;;;;;27.23;15.55;;;22.80;99.90;;;;;;6334894;28;20365;-66
2022/08/20 10:54:20;;;;;;;25.20;15.05;;;22.80;99.90;;;;;;6334530;28;20293;-66
2022/08/20 10:57:28;;;;;;;27.52;15.25;;;22.80;99.90;;;;;;6335992;28;20275;-66
2022/08/20 11:00:34;;;;;;;29.77;15.77;;;22.80;99.90;;;;;;6339844;28;20291;-66
2022/08/20 11:03:39;;;;;;;25.13;15.85;;;22.80;99.90;;;;;;6328917;28;20293;-66
2022/08/20 11:06:46;;;;;;;35.33;16.38;;;22.80;99.90;;;;;;6314722;28;20270;-67
2022/08/20 11:09:51;;;;;;;24.02;15.35;;;22.70;99.90;;;;;;6314160;28;20298;-66
2022/08/20 11:12:57;;;;;;;32.15;16.10;;;22.80;99.90;;;;;;6314188;28;20299;-66
2022/08/20 11:16:03;;;;;;;29.52;15.32;;;22.80;99.90;;;;;;6314253;28;20435;-66
2022/08/20 11:19:10;;;;;;;36.80;16.05;;;;;;;;;;6313890;28;20294;-66
2022/08/20 11:22:17;;;;;;;35.33;16.13;;;22.70;99.90;;;;;;6313474;28;20286;-66
2022/08/20 11:25:23;;;;;;;38.80;16.77;;;22.70;99.90;;;;;;6314285;28;20481;-68
2022/08/20 11:28:30;;;;;;;30.27;15.23;;;22.70;99.90;;;;;;6313420;28;20290;-67
2022/08/20 11:31:36;;;;;;;32.60;15.30;;;22.70;99.90;;;;;;6314007;28;20270;-67
2022/08/20 11:34:41;;;;;;;41.33;15.35;;;22.80;99.90;;;;;;6313048;28;20298;-66
2022/08/20 11:37:48;;;;;;;29.75;14.65;;;22.80;99.90;;;;;;6313128;28;20298;-67
2022/08/20 11:40:53;;;;;;;40.72;14.48;;;22.70;99.90;;;;;;6313557;28;20593;-66
2022/08/20 11:43:58;;;;;;;29.15;14.25;;;22.70;99.90;;;;;;6313244;28;20299;-66
2022/08/20 11:47:26;;;;;;;36.33;13.85;;;22.80;99.90;;;;;;6313326;28;20275;-66
2022/08/20 11:50:31;;;;;;;33.40;14.10;;;22.70;99.90;;;;;;6313456;28;20394;-66
2022/08/20 11:53:38;;;;;;;33.58;14.57;;;22.80;99.90;;;;;;6313306;28;20294;-66
2022/08/20 11:56:45;;;;;;;35.38;14.07;;;22.70;99.90;;;;;;6313364;28;20270;-65
2022/08/20 11:59:51;;;;;;;41.97;14.88;;;22.70;99.90;;;;;;6312788;28;20298;-66
2022/08/20 12:02:57;;;;;;;35.42;15.32;;;22.70;99.90;;;;;;6316610;28;20306;-67
2022/08/20 12:06:04;;;;;;;38.28;15.45;;;22.70;99.90;;;;;;6338676;28;20270;-66
2022/08/20 12:09:11;;;;;;;42.47;17.00;;;22.80;99.90;;;;;;6336753;28;20305;-66
2022/08/20 12:12:16;;;;;;;30.70;15.50;;;22.70;99.90;;;;;;6332747;28;20535;-66
2022/08/20 12:15:22;;;;;;;35.22;15.43;;;22.70;99.90;;;;;;6337729;28;20273;-66
2022/08/20 12:18:27;;;;;;;40.90;16.65;;;22.80;99.90;;;;;;6337619;28;20297;-66
2022/08/20 12:21:33;;;;;;;35.10;16.05;;;22.70;99.90;;;;;;6337984;28;20297;-66
2022/08/20 12:24:40;;;;;;;37.15;15.93;;;22.70;99.90;;;;;;6338014;28;20297;-67
2022/08/20 12:27:46;;;;;;;42.67;17.70;;;22.70;99.90;;;;;;6337655;28;20377;-66
2022/08/20 12:30:51;;;;;;;42.45;16.83;;;22.80;99.90;;;;;;6337814;28;20269;-66
2022/08/20 12:33:56;;;;;;;41.17;16.77;;;22.80;99.90;;;;;;6337250;28;20289;-66
2022/08/20 12:37:04;;;;;;;45.35;17.13;;;22.80;99.90;;;;;;6337724;28;20432;-65
2022/08/20 12:40:15;;;;;;;38.53;18.08;;;22.90;99.90;;;;;;6336804;28;20274;-66
2022/08/20 12:43:20;;;;;;;36.38;16.83;;;23.00;99.90;;;;;;6336647;28;20318;-66
2022/08/20 12:46:29;;;;;;;38.78;16.75;;;23.10;99.90;;;;;;6337279;28;20269;-67
2022/08/20 12:49:35;;;;;;;32.55;16.10;;;23.10;99.90;;;;;;6337269;28;20297;-66
2022/08/20 12:52:41;;;;;;;33.95;16.13;;;23.20;99.90;;;;;;6337291;28;20405;-66
2022/08/20 12:55:48;;;;;;;36.22;16.30;;;23.30;99.90;;;;;;6337136;28;20436;-65
2022/08/20 12:58:53;;;;;;;32.17;16.48;;;23.30;99.90;;;;;;6336512;28;20293;-67
2022/08/20 13:01:58;;;;;;;28.48;15.65;;;23.40;99.90;;;;;;6336634;28;20294;-66
2022/08/20 13:05:18;;;;;;;25.83;15.00;;;23.60;99.90;;;;;;6336299;28;20298;-67
2022/08/20 13:08:23;;;;;;;36.78;15.70;;;23.70;99.90;;;;;;6336180;28;20502;-64
2022/08/20 13:11:30;;;;;;;28.67;15.75;;;23.80;99.90;;;;;;6337283;28;20266;-67
2022/08/20 13:14:35;;;;;;;25.98;15.88;;;23.80;99.90;;;;;;6336099;28;20604;-66
2022/08/20 13:17:40;;;;;;;27.40;14.65;;;24.00;99.90;;;;;;6336328;28;20313;-66
2022/08/20 13:20:45;;;;;;;26.05;14.60;;;24.00;99.90;;;;;;6336113;28;20271;-66
2022/08/20 13:23:51;;;;;;;28.60;14.80;;;24.00;99.90;;;;;;6336314;28;20572;-66
2022/08/20 13:27:06;;;;;;;23.13;14.68;;;24.10;99.90;;;;;;6336676;28;20496;-65
2022/08/20 13:30:15;;;;;;;27.95;13.57;;;24.10;99.90;;;;;;6335709;28;20286;-66
2022/08/20 13:33:20;;;;;;;23.67;14.02;;;24.20;99.90;;;;;;6335672;28;20302;-67
2022/08/20 13:36:25;;;;;;;20.85;13.40;;;24.20;99.90;;;;;;6336250;28;20270;-66
2022/08/20 13:39:30;;;;;;;28.25;13.35;;;24.20;99.90;;;;;;6335588;28;20392;-66
2022/08/20 13:42:37;;;;;;;23.08;12.68;;;24.20;99.90;;;;;;6335603;28;20573;-66
2022/08/20 13:45:43;;;;;;;22.52;12.52;;;24.30;99.90;;;;;;6335904;28;20265;-66
2022/08/20 13:48:48;;;;;;;19.20;12.60;;;24.30;99.90;;;;;;6335440;28;20293;-66
2022/08/20 13:51:53;;;;;;;17.95;11.85;;;24.50;99.90;;;;;;6335677;28;20438;-66
2022/08/20 13:54:58;;;;;;;18.13;11.75;;;24.50;99.90;;;;;;6334936;28;20297;-66
2022/08/20 13:58:07;;;;;;;20.10;12.50;;;24.50;99.90;;;;;;6335143;28;20290;-65
2022/08/20 14:01:13;;;;;;;25.50;11.10;;;24.60;99.90;;;;;;6335459;28;20569;-66
2022/08/20 14:04:18;;;;;;;14.05;10.07;;;24.50;99.90;;;;;;6335162;28;20293;-67
2022/08/20 14:07:26;;;;;;;15.10;9.68;;;24.60;99.90;;;;;;6334830;28;20433;-66
2022/08/20 14:10:37;;;;;;;17.13;9.73;;;24.50;99.90;;;;;;6330561;28;20261;-66
2022/08/20 14:13:43;;;;;;;14.00;9.80;;;24.50;99.90;;;;;;6335094;28;20476;-66
2022/08/20 14:16:48;;;;;;;13.35;9.88;;;24.50;99.90;;;;;;6335456;28;20473;-66
2022/08/20 14:19:57;;;;;;;15.27;8.95;;;24.60;99.90;;;;;;6335037;28;20451;-66
2022/08/20 14:23:06;;;;;;;12.00;9.57;;;24.50;99.90;;;;;;6335097;28;20574;-67
2022/08/20 14:26:11;;;;;;;11.90;8.88;;;24.50;99.90;;;;;;6335319;28;20541;-67
2022/08/20 14:29:21;;;;;;;10.75;8.68;;;24.40;99.90;;;;;;6334871;28;20581;-67
2022/08/20 14:32:26;;;;;;;11.32;8.85;;;24.20;99.90;;;;;;6336768;28;20273;-67
2022/08/20 14:35:31;;;;;;;13.90;9.30;;;24.20;99.90;;;;;;6340188;28;20269;-67
2022/08/20 14:38:43;;;;;;;14.50;8.38;;;24.20;99.90;;;;;;6339880;28;20361;-66
2022/08/20 14:41:49;;;;;;;16.27;9.40;;;24.20;99.90;;;;;;6340534;28;20270;-66
2022/08/20 14:44:57;;;;;;;14.50;8.70;;;24.20;99.90;;;;;;6340069;28;20470;-65
2022/08/20 14:48:03;;;;;;;14.50;8.23;;;24.30;99.90;;;;;;6339642;28;20600;-66
2022/08/20 14:51:09;;;;;;;10.95;8.80;;;24.30;99.90;;;;;;6339966;28;20270;-66
2022/08/20 14:54:14;;;;;;;15.88;8.85;;;24.40;99.90;;;;;;6339647;28;20469;-66
2022/08/20 14:57:21;;;;;;;10.23;8.25;;;24.30;99.90;;;;;;6339567;28;20269;-67
2022/08/20 15:00:29;;;;;;;11.77;8.02;;;24.30;99.90;;;;;;6340023;28;20421;-67
2022/08/20 15:03:35;;;;;;;11.05;7.57;;;24.40;99.90;;;;;;6339043;28;20305;-66
2022/08/20 15:06:41;;;;;;;14.48;8.32;;;24.40;99.90;;;;;;6339704;28;20560;-67
2022/08/20 15:09:49;;;;;;;14.90;8.75;;;24.50;99.90;;;;;;6338742;28;20297;-66
2022/08/20 15:12:54;;;;;;;11.18;8.13;;;24.50;99.90;;;;;;6339156;28;20302;-65
2022/08/20 15:16:01;;;;;;;12.57;7.88;;;24.50;99.90;;;;;;6339214;28;20552;-67
2022/08/20 15:19:06;;;;;;;11.00;8.43;;;24.60;99.90;;;;;;6338868;28;20293;-67
2022/08/20 15:22:12;;;;;;;8.88;7.82;;;24.70;99.90;;;;;;6338705;28;20274;-65
2022/08/20 15:25:20;;;;;;;9.27;8.32;;;24.60;99.90;;;;;;6339086;28;20585;-67
2022/08/20 15:28:25;;;;;;;10.63;7.97;;;24.60;99.90;;;;;;6339130;28;20305;-67
2022/08/20 15:31:32;;;;;;;8.77;7.88;;;24.60;99.90;;;;;;6339380;28;20270;-66
2022/08/20 15:34:40;;;;;;;9.70;7.95;;;24.60;99.90;;;;;;6338724;28;20302;-66
2022/08/20 15:37:49;;;;;;;9.73;7.97;;;24.50;99.90;;;;;;6338675;28;20293;-66
2022/08/20 15:40:54;;;;;;;8.95;8.25;;;24.50;99.90;;;;;;6338617;28;20274;-67
2022/08/20 15:43:59;;;;;;;11.90;8.13;;;24.50;99.90;;;;;;6336965;28;20321;-66
2022/08/20 15:47:25;;;;;;;8.70;7.97;;;24.50;99.90;;;;;;6338810;28;20502;-66
2022/08/20 15:50:56;;;;;;;9.30;8.45;;;24.40;99.90;;;;;;6337763;28;20274;-66
2022/08/20 15:54:05;;;;;;;9.23;8.43;;;24.30;99.90;;;;;;6338148;28;20479;-66
2022/08/20 15:57:16;;;;;;;10.57;8.73;;;24.40;99.90;;;;;;6337933;28;20273;-67
2022/08/20 16:00:24;;;;;;;8.45;7.60;;;24.30;99.90;;;;;;6338317;28;20266;-67
2022/08/20 16:03:55;;;;;;;6.80;6.30;;;24.20;99.90;;;;;;6337673;28;20298;-65
2022/08/20 16:07:10;;;;;;;7.60;6.90;;;24.10;99.90;;;;;;6337505;28;20270;-66